Current Conditions
Partly Cloudy
Conditions



Pressure
1014.92 (mb) - 29.97 (inHG)
Visibility

10.0 (km) - 6.2 (miles)
Temperature
13  °C
Temperature
9  °C
Dewpoint
77  %
 Humidity
Wind Speed
9.8  m/s
22  mph
35  km/h
19  kts
Wind Direction
N
45°
E
90°
135°
S
180°
225°
W
270°
315°
 220°

South West
Airport Data
ENAL
Ă…lesund Airport
Metar :ENAL 211020Z 22019KT 9999 FEW014 SCT024 BKN040 13/09 Q1015
Tue 21st September 12:20 pm
Raw Metar Info
Raw METAR is the most common format in the world for the transmission of observational weather data. It is highly standardized through the International Civil Aviation Organization (ICAO), which allows it to be understood throughout most of the world.
API Info
Data Provided by
https://www.checkwx.com/weather/ENAL

Aviation Weather providing METAR, TAF, AIRMET, SIGMET and OUTLOOK Weather Reports
© Info
CSS/SVG/PHP scripts were developed by weather34.com for use in the weather34 template © 2015-2021

Guide Info provided by Metar-Wikipedia